Time;durP1;ratioP1;P1;durP2;ratioP2;P2;SDS_P1;SDS_P2;PMS_P1;PMS_P2;Temp;Humidity;BMP_temperature;BMP_pressure;BME280_temperature;BME280_humidity;BME280_pressure;Samples;Min_cycle;Max_cycle;Signal;HPM_P1;HPM_P2
2023/01/28 00:00:27;;;;;;;;;;;2.60;99.90;;;;;;5143197;27;19980;-81
2023/01/28 00:02:53;;;;;;;;;;;2.60;99.90;;;;;;5124760;27;19978;-80
2023/01/28 00:05:18;;;;;;;;;;;2.60;99.90;;;;;;5124066;27;19993;-80
2023/01/28 00:07:44;;;;;;;;;;;2.60;99.90;;;;;;5108270;27;19945;-80
2023/01/28 00:10:10;;;;;;;;;;;2.60;99.90;;;;;;5141851;27;19982;-80
2023/01/28 00:12:35;;;;;;;;;;;2.60;99.90;;;;;;5107773;27;19928;-81
2023/01/28 00:15:01;;;;;;;;;;;2.60;99.90;;;;;;5107364;27;20548;-80
2023/01/28 00:17:26;;;;;;;;;;;2.60;99.90;;;;;;5124110;27;20543;-80
2023/01/28 00:19:52;;;;;;;;;;;2.60;99.90;;;;;;5125802;27;19924;-80
2023/01/28 00:22:18;;;;;;;;;;;2.60;99.90;;;;;;5150222;27;19928;-80
2023/01/28 00:24:44;;;;;;;;;;;2.60;99.90;;;;;;5133575;27;20278;-80
2023/01/28 00:27:10;;;;;;;;;;;2.60;99.90;;;;;;5131960;27;19927;-81
2023/01/28 00:29:35;;;;;;;;;;;2.50;99.90;;;;;;5121374;27;19934;-81
2023/01/28 00:32:01;;;;;;;;;;;2.50;99.90;;;;;;5115321;27;19933;-81
2023/01/28 00:34:26;;;;;;;;;;;2.50;99.90;;;;;;5149623;27;19931;-80
2023/01/28 00:36:58;;;;;;;;;;;2.50;99.90;;;;;;5108792;28;19934;-80
2023/01/28 00:39:25;;;;;;;;;;;2.50;99.90;;;;;;5119177;27;19930;-80
2023/01/28 00:41:51;;;;;;;;;;;2.50;99.90;;;;;;5125235;27;19924;-80
2023/01/28 00:44:16;;;;;;;;;;;2.40;99.90;;;;;;5142039;27;19958;-80
2023/01/28 00:46:42;;;;;;;;;;;2.40;99.90;;;;;;5124622;27;19946;-80
2023/01/28 00:49:08;;;;;;;;;;;2.40;99.90;;;;;;5123354;27;19923;-80
2023/01/28 00:51:34;;;;;;;;;;;2.40;99.90;;;;;;5124132;27;19934;-80
2023/01/28 00:53:59;;;;;;;;;;;2.40;99.90;;;;;;5107227;27;19999;-80
2023/01/28 00:56:25;;;;;;;;;;;2.30;99.90;;;;;;5123793;27;19949;-80
2023/01/28 00:58:51;;;;;;;;;;;2.30;99.90;;;;;;5124736;27;20050;-81
2023/01/28 01:01:18;;;;;;;;;;;2.40;99.90;;;;;;5117386;27;20007;-80
2023/01/28 01:03:43;;;;;;;;;;;2.40;99.90;;;;;;5127147;27;19931;-80
2023/01/28 01:06:10;;;;;;;;;;;2.30;99.90;;;;;;5128258;27;19923;-81
2023/01/28 01:08:38;;;;;;;;;;;2.40;99.90;;;;;;5151444;27;19976;-80
2023/01/28 01:11:05;;;;;;;;;;;2.40;99.90;;;;;;5123657;27;19927;-80
2023/01/28 01:13:33;;;;;;;;;;;2.40;99.90;;;;;;5123506;27;19931;-80
2023/01/28 01:16:02;;;;;;;;;;;2.40;99.90;;;;;;5105715;27;19964;-80
2023/01/28 01:18:28;;;;;;;;;;;2.30;99.90;;;;;;5105424;27;19927;-80
2023/01/28 01:20:57;;;;;;;;;;;2.30;99.90;;;;;;5124219;27;19923;-80
2023/01/28 01:23:27;;;;;;;;;;;2.30;99.90;;;;;;5140978;27;19966;-80
2023/01/28 01:25:52;;;;;;;;;;;2.30;99.90;;;;;;5120729;27;19924;-81
2023/01/28 01:28:19;;;;;;;;;;;2.30;99.90;;;;;;5120151;27;19924;-80
2023/01/28 01:30:45;;;;;;;;;;;2.30;99.90;;;;;;5114501;27;19983;-80
2023/01/28 01:33:11;;;;;;;;;;;2.30;99.90;;;;;;5106939;27;19923;-80
2023/01/28 01:35:36;;;;;;;;;;;2.30;99.90;;;;;;5122174;27;19930;-80
2023/01/28 01:38:02;;;;;;;;;;;2.30;99.90;;;;;;5121989;27;19962;-80
2023/01/28 01:40:28;;;;;;;;;;;2.30;99.90;;;;;;5109941;27;19943;-80
2023/01/28 01:42:54;;;;;;;;;;;2.30;99.90;;;;;;5102023;28;20405;-80
2023/01/28 01:45:19;;;;;;;;;;;2.30;99.90;;;;;;5098658;28;19924;-80
2023/01/28 01:47:57;;;;;;;;;;;2.30;99.90;;;;;;5118349;28;20451;-80
2023/01/28 01:50:26;;;;;;;;;;;2.20;99.90;;;;;;5120224;28;19953;-80
2023/01/28 01:52:53;;;;;;;;;;;2.20;99.90;;;;;;5116285;28;19959;-80
2023/01/28 01:55:19;;;;;;;;;;;2.20;99.90;;;;;;5121971;27;19924;-81
2023/01/28 01:57:47;;;;;;;;;;;2.20;99.90;;;;;;5100545;28;19924;-80
2023/01/28 02:00:12;;;;;;;;;;;2.20;99.90;;;;;;5094227;28;19923;-80
2023/01/28 02:02:43;;;;;;;;;;;2.20;99.90;;;;;;5115164;27;19924;-80
2023/01/28 02:05:09;;;;;;;;;;;2.20;99.90;;;;;;5116393;28;20297;-80
2023/01/28 02:07:35;;;;;;;;;;;2.20;99.90;;;;;;5119864;28;19923;-80
2023/01/28 02:10:01;;;;;;;;;;;2.20;99.90;;;;;;5100968;28;19967;-80
2023/01/28 02:12:29;;;;;;;;;;;2.20;99.90;;;;;;5119723;27;20051;-80
2023/01/28 02:14:57;;;;;;;;;;;2.20;99.90;;;;;;5132547;27;19957;-81
2023/01/28 02:17:23;;;;;;;;;;;2.20;99.90;;;;;;5111990;28;19924;-80
2023/01/28 02:19:57;;;;;;;;;;;2.10;99.90;;;;;;5113435;28;19924;-80
2023/01/28 02:22:39;;;;;;;;;;;2.10;99.90;;;;;;5108143;28;19939;-81
2023/01/28 02:25:22;;;;;;;;;;;2.10;99.90;;;;;;5102573;28;19931;-80
2023/01/28 02:28:03;;;;;;;;;;;2.10;99.90;;;;;;5101175;28;19928;-80
2023/01/28 02:30:33;;;;;;;;;;;2.10;99.90;;;;;;5088197;28;20445;-81
2023/01/28 02:33:06;;;;;;;;;;;2.10;99.90;;;;;;5119754;28;20026;-80
2023/01/28 02:35:41;;;;;;;;;;;2.10;99.90;;;;;;5089711;28;19961;-80
2023/01/28 02:38:10;;;;;;;;;;;2.10;99.90;;;;;;5119300;28;19931;-80
2023/01/28 02:43:32;;;;;;;;;;;2.20;99.90;;;;;;5129969;27;19924;-81
2023/01/28 02:48:42;;;;;;;;;;;2.10;99.90;;;;;;5120853;28;19931;-81
2023/01/28 02:51:27;;;;;;;;;;;2.10;99.90;;;;;;5118915;28;19939;-80
2023/01/28 02:53:58;;;;;;;;;;;2.10;99.90;;;;;;5090410;28;19923;-80
2023/01/28 02:56:29;;;;;;;;;;;2.10;99.90;;;;;;5104710;28;19923;-81
2023/01/28 02:58:58;;;;;;;;;;;2.10;99.90;;;;;;5136863;28;19995;-81
2023/01/28 03:01:49;;;;;;;;;;;2.00;99.90;;;;;;5139492;28;19924;-81
2023/01/28 03:04:15;;;;;;;;;;;1.90;99.90;;;;;;5133221;28;19934;-80
2023/01/28 03:06:43;;;;;;;;;;;1.90;99.90;;;;;;5115324;28;20045;-81
2023/01/28 03:09:21;;;;;;;;;;;1.90;99.90;;;;;;5100528;28;19927;-80
2023/01/28 03:37:01;;;;;;;;;;;1.90;99.90;;;;;;5108783;28;19934;-81
2023/01/28 03:39:27;;;;;;;;;;;1.90;99.90;;;;;;5120634;28;19924;-81
2023/01/28 03:42:02;;;;;;;;;;;1.90;99.90;;;;;;5119146;28;19935;-81
2023/01/28 03:47:12;;;;;;;;;;;1.90;99.90;;;;;;5112251;27;19923;-81
2023/01/28 03:49:39;;;;;;;;;;;1.90;99.90;;;;;;5125517;27;19927;-81
2023/01/28 03:52:04;;;;;;;;;;;1.90;99.90;;;;;;5124812;27;19945;-81
2023/01/28 03:54:30;;;;;;;;;;;2.00;99.90;;;;;;5126367;27;20261;-81
2023/01/28 03:56:55;;;;;;;;;;;1.90;99.90;;;;;;5107164;27;19946;-81
2023/01/28 03:59:21;;;;;;;;;;;1.90;99.90;;;;;;5103764;28;19928;-81
2023/01/28 04:01:49;;;;;;;;;;;1.90;99.90;;;;;;5102179;27;19923;-81
2023/01/28 04:04:21;;;;;;;;;;;1.90;99.90;;;;;;5125636;27;20335;-81
2023/01/28 04:06:47;;;;;;;;;;;1.90;99.90;;;;;;5125003;27;19927;-80
2023/01/28 04:09:13;;;;;;;;;;;1.90;99.90;;;;;;5106252;27;19966;-80
2023/01/28 04:11:38;;;;;;;;;;;1.90;99.90;;;;;;5108595;27;19927;-80
2023/01/28 04:14:04;;;;;;;;;;;1.90;99.90;;;;;;5123805;27;19968;-81
2023/01/28 04:16:29;;;;;;;;;;;1.90;99.90;;;;;;5118418;28;20297;-81
2023/01/28 04:18:56;;;;;;;;;;;1.90;99.90;;;;;;5094261;28;19983;-81
2023/01/28 04:21:22;;;;;;;;;;;1.90;99.90;;;;;;5135514;27;20031;-81
2023/01/28 04:23:47;;;;;;;;;;;1.80;99.90;;;;;;5107091;27;20021;-80
2023/01/28 04:26:13;;;;;;;;;;;1.80;99.90;;;;;;5117483;27;19949;-80
2023/01/28 04:28:38;;;;;;;;;;;1.80;99.90;;;;;;5132009;27;19967;-80
2023/01/28 04:31:04;;;;;;;;;;;1.80;99.90;;;;;;5080247;27;19930;-81
2023/01/28 04:33:30;;;;;;;;;;;1.80;99.90;;;;;;5104062;28;19980;-80
2023/01/28 04:35:55;;;;;;;;;;;1.80;99.90;;;;;;5098541;27;19923;-81
2023/01/28 04:38:21;;;;;;;;;;;1.80;99.90;;;;;;5124176;27;19924;-81
2023/01/28 04:40:50;;;;;;;;;;;1.80;99.90;;;;;;5122687;27;19992;-81
2023/01/28 04:43:16;;;;;;;;;;;1.80;99.90;;;;;;5120395;27;19944;-80
2023/01/28 04:45:42;;;;;;;;;;;1.80;99.90;;;;;;5123821;27;19923;-81
2023/01/28 04:48:08;;;;;;;;;;;1.80;99.90;;;;;;5122008;27;19927;-81
2023/01/28 04:50:33;;;;;;;;;;;1.80;99.90;;;;;;5119477;27;19924;-81
2023/01/28 04:52:59;;;;;;;;;;;1.80;99.90;;;;;;5109402;27;19953;-81
2023/01/28 04:55:24;;;;;;;;;;;1.80;99.90;;;;;;5123097;27;20014;-81
2023/01/28 04:57:50;;;;;;;;;;;1.70;99.90;;;;;;5113653;27;20278;-81
2023/01/28 05:00:16;;;;;;;;;;;1.70;99.90;;;;;;5123579;27;19993;-81
2023/01/28 05:02:41;;;;;;;;;;;1.70;99.90;;;;;;5114920;28;20105;-81
2023/01/28 05:05:10;;;;;;;;;;;1.70;99.90;;;;;;5101068;27;19927;-81
2023/01/28 05:07:36;;;;;;;;;;;1.70;99.90;;;;;;5102313;27;19927;-80
2023/01/28 05:10:02;;;;;;;;;;;1.70;99.90;;;;;;5122391;27;19924;-81
2023/01/28 05:12:29;;;;;;;;;;;1.70;99.90;;;;;;5106673;27;19923;-81
2023/01/28 05:14:54;;;;;;;;;;;1.70;99.90;;;;;;5122040;27;19923;-81
2023/01/28 05:17:20;;;;;;;;;;;1.70;99.90;;;;;;5095362;27;20354;-80
2023/01/28 05:19:45;;;;;;;;;;;1.80;99.90;;;;;;5122119;27;20394;-80
2023/01/28 05:22:11;;;;;;;;;;;1.80;99.90;;;;;;5121819;27;19945;-80
2023/01/28 05:24:36;;;;;;;;;;;1.80;99.90;;;;;;5095302;27;19971;-80
2023/01/28 05:27:02;;;;;;;;;;;1.80;99.90;;;;;;5116010;27;19931;-80
2023/01/28 05:29:28;;;;;;;;;;;1.80;99.90;;;;;;5123897;27;19976;-81
2023/01/28 05:31:53;;;;;;;;;;;1.80;99.90;;;;;;5119844;27;19927;-80
2023/01/28 05:34:19;;;;;;;;;;;1.80;99.90;;;;;;5123751;27;20421;-81
2023/01/28 05:36:44;;;;;;;;;;;1.80;99.90;;;;;;5122954;27;19923;-80
2023/01/28 05:39:10;;;;;;;;;;;1.80;99.90;;;;;;5122677;27;19966;-81
2023/01/28 05:41:35;;;;;;;;;;;1.80;99.90;;;;;;5106413;27;19927;-81
2023/01/28 05:44:01;;;;;;;;;;;1.80;99.90;;;;;;5121373;27;19984;-80
2023/01/28 05:46:27;;;;;;;;;;;1.80;99.90;;;;;;5106600;27;19924;-81
2023/01/28 05:48:52;;;;;;;;;;;1.80;99.90;;;;;;5122254;27;19944;-81
2023/01/28 05:51:18;;;;;;;;;;;1.80;99.90;;;;;;5106545;27;19932;-81
2023/01/28 05:53:43;;;;;;;;;;;1.80;99.90;;;;;;5105375;27;20002;-81
2023/01/28 05:56:09;;;;;;;;;;;1.80;99.90;;;;;;5122967;27;19923;-81
2023/01/28 05:58:35;;;;;;;;;;;1.80;99.90;;;;;;5122467;27;20633;-81
2023/01/28 06:01:00;;;;;;;;;;;1.80;99.90;;;;;;5105114;27;20509;-81
2023/01/28 06:03:26;;;;;;;;;;;1.80;99.90;;;;;;5112472;28;20534;-81
2023/01/28 06:05:51;;;;;;;;;;;1.80;99.90;;;;;;5101375;27;19934;-81
2023/01/28 06:08:17;;;;;;;;;;;1.70;99.90;;;;;;5122591;28;20338;-81
2023/01/28 06:10:42;;;;;;;;;;;1.70;99.90;;;;;;5121837;27;20280;-81
2023/01/28 06:13:08;;;;;;;;;;;1.70;99.90;;;;;;5102665;28;19991;-81
2023/01/28 06:15:33;;;;;;;;;;;1.80;99.90;;;;;;5089169;28;19993;-81
2023/01/28 06:17:59;;;;;;;;;;;1.70;99.90;;;;;;5133789;27;19928;-80
2023/01/28 06:20:25;;;;;;;;;;;1.70;99.90;;;;;;5097066;27;19973;-80
2023/01/28 06:22:50;;;;;;;;;;;1.70;99.90;;;;;;5104188;27;20393;-81
2023/01/28 06:25:16;;;;;;;;;;;1.70;99.90;;;;;;5123127;27;20379;-81
2023/01/28 06:27:42;;;;;;;;;;;1.70;99.90;;;;;;5104354;27;20381;-81
2023/01/28 06:30:08;;;;;;;;;;;1.70;99.90;;;;;;5122471;27;19932;-81
2023/01/28 06:32:34;;;;;;;;;;;1.70;99.90;;;;;;5101913;28;19924;-81
2023/01/28 06:34:59;;;;;;;;;;;1.70;99.90;;;;;;5116753;28;20019;-81
2023/01/28 06:37:25;;;;;;;;;;;1.70;99.90;;;;;;5113597;27;19930;-81
2023/01/28 06:39:50;;;;;;;;;;;1.70;99.90;;;;;;5103682;27;19923;-81
2023/01/28 06:42:16;;;;;;;;;;;1.70;99.90;;;;;;5122762;28;19931;-81
2023/01/28 06:44:42;;;;;;;;;;;1.70;99.90;;;;;;5100422;28;19923;-80
2023/01/28 06:47:08;;;;;;;;;;;1.70;99.90;;;;;;5118720;28;19981;-81
2023/01/28 06:49:34;;;;;;;;;;;1.70;99.90;;;;;;5111211;28;19924;-81
2023/01/28 06:51:59;;;;;;;;;;;1.70;99.90;;;;;;5116450;28;19934;-81
2023/01/28 06:54:25;;;;;;;;;;;1.70;99.90;;;;;;5102510;28;19931;-80
2023/01/28 06:56:50;;;;;;;;;;;1.70;99.90;;;;;;5117624;28;19995;-81
2023/01/28 06:59:16;;;;;;;;;;;1.70;99.90;;;;;;5119328;28;19945;-80
2023/01/28 07:01:41;;;;;;;;;;;1.70;99.90;;;;;;5117434;28;19931;-81
2023/01/28 07:04:07;;;;;;;;;;;1.70;99.90;;;;;;5115962;28;19952;-81
2023/01/28 07:06:33;;;;;;;;;;;1.70;99.90;;;;;;5117974;28;19923;-81
2023/01/28 07:08:58;;;;;;;;;;;1.70;99.90;;;;;;5101173;28;19924;-81
2023/01/28 07:11:24;;;;;;;;;;;1.60;99.90;;;;;;5119019;28;19969;-81
2023/01/28 07:13:50;;;;;;;;;;;1.60;99.90;;;;;;5117271;28;19931;-80
2023/01/28 07:16:15;;;;;;;;;;;1.70;99.90;;;;;;5097592;28;20018;-81
2023/01/28 07:18:41;;;;;;;;;;;1.70;99.90;;;;;;5100192;28;19924;-81
2023/01/28 07:21:07;;;;;;;;;;;1.70;99.90;;;;;;5121443;28;19931;-81
2023/01/28 07:23:32;;;;;;;;;;;1.70;99.90;;;;;;5104433;28;19927;-80
2023/01/28 07:26:01;;;;;;;;;;;1.70;99.90;;;;;;5123882;28;19932;-81
2023/01/28 07:28:27;;;;;;;;;;;1.70;99.90;;;;;;5095997;27;20101;-80
2023/01/28 07:30:53;;;;;;;;;;;1.70;99.90;;;;;;5108544;28;19925;-81
2023/01/28 07:33:18;;;;;;;;;;;1.70;99.90;;;;;;5121656;28;19924;-81
2023/01/28 07:35:44;;;;;;;;;;;1.70;99.90;;;;;;5114914;28;19930;-81
2023/01/28 07:38:10;;;;;;;;;;;1.70;99.90;;;;;;5107764;28;20009;-81
2023/01/28 07:40:36;;;;;;;;;;;1.70;99.90;;;;;;5120368;28;20358;-81
2023/01/28 07:43:01;;;;;;;;;;;1.70;99.90;;;;;;5118698;28;20378;-82
2023/01/28 07:45:29;;;;;;;;;;;1.70;99.90;;;;;;5104315;28;20004;-81
2023/01/28 07:48:02;;;;;;;;;;;1.70;99.90;;;;;;5103959;28;20388;-81
2023/01/28 07:50:29;;;;;;;;;;;1.70;99.90;;;;;;5119897;28;19939;-82
2023/01/28 07:52:55;;;;;;;;;;;1.70;99.90;;;;;;5109722;28;19924;-82
2023/01/28 07:55:21;;;;;;;;;;;1.70;99.90;;;;;;5119794;28;19924;-81
2023/01/28 07:57:57;;;;;;;;;;;1.70;99.90;;;;;;5103946;28;19924;-81
2023/01/28 08:00:23;;;;;;;;;;;1.70;99.90;;;;;;5119994;28;19934;-81
2023/01/28 08:02:49;;;;;;;;;;;1.70;99.90;;;;;;5128004;27;19988;-81
2023/01/28 08:05:16;;;;;;;;;;;1.70;99.90;;;;;;5109435;28;19924;-81
2023/01/28 08:07:42;;;;;;;;;;;1.60;99.90;;;;;;5098052;28;19996;-80
2023/01/28 08:10:09;;;;;;;;;;;1.60;99.90;;;;;;5110179;28;20049;-81
2023/01/28 08:12:34;;;;;;;;;;;1.60;99.90;;;;;;5114016;28;19986;-81
2023/01/28 08:15:00;;;;;;;;;;;1.60;99.90;;;;;;5115515;28;19932;-81
2023/01/28 08:17:26;;;;;;;;;;;1.60;99.90;;;;;;5111962;28;20016;-80
2023/01/28 08:19:52;;;;;;;;;;;1.50;99.90;;;;;;5108212;28;20015;-81
2023/01/28 08:22:18;;;;;;;;;;;1.60;99.90;;;;;;5112680;28;19973;-81
2023/01/28 08:24:43;;;;;;;;;;;1.60;99.90;;;;;;5101535;28;19924;-81
2023/01/28 08:27:09;;;;;;;;;;;1.60;99.90;;;;;;5109965;28;19931;-81
2023/01/28 08:29:34;;;;;;;;;;;1.60;99.90;;;;;;5120380;28;19924;-81
2023/01/28 08:32:00;;;;;;;;;;;1.60;99.90;;;;;;5115941;28;19923;-81
2023/01/28 08:34:25;;;;;;;;;;;1.60;99.90;;;;;;5115264;28;19930;-81
2023/01/28 08:36:51;;;;;;;;;;;1.80;99.90;;;;;;5121074;28;20328;-81
2023/01/28 08:39:16;;;;;;;;;;;1.90;99.90;;;;;;5120110;28;19924;-81
2023/01/28 08:41:44;;;;;;;;;;;2.20;99.90;;;;;;5100680;28;20195;-81
2023/01/28 08:44:09;;;;;;;;;;;2.40;99.90;;;;;;5101487;28;20452;-81
2023/01/28 08:46:35;;;;;;;;;;;2.40;99.90;;;;;;5100465;28;20007;-82
2023/01/28 08:49:01;;;;;;;;;;;2.40;99.90;;;;;;5101053;28;19923;-81
2023/01/28 08:51:27;;;;;;;;;;;2.40;99.90;;;;;;5082622;28;20370;-81
2023/01/28 08:53:52;;;;;;;;;;;2.30;99.90;;;;;;5075499;28;19932;-81
2023/01/28 08:56:18;;;;;;;;;;;2.30;99.90;;;;;;5074629;28;19928;-81
2023/01/28 08:58:43;;;;;;;;;;;2.30;99.90;;;;;;5096852;28;19924;-82
2023/01/28 09:01:09;;;;;;;;;;;2.20;99.90;;;;;;5072203;28;19946;-81
2023/01/28 09:03:35;;;;;;;;;;;2.30;99.90;;;;;;5082228;28;19974;-82
2023/01/28 09:06:01;;;;;;;;;;;2.30;99.90;;;;;;5098869;28;19924;-81
2023/01/28 09:08:26;;;;;;;;;;;2.30;99.90;;;;;;5100371;28;19928;-81
2023/01/28 09:10:55;;;;;;;;;;;2.20;99.90;;;;;;5093255;28;19935;-81
2023/01/28 09:13:21;;;;;;;;;;;2.20;99.90;;;;;;5099283;28;19924;-81
2023/01/28 09:15:47;;;;;;;;;;;2.20;99.90;;;;;;5098748;28;20023;-81
2023/01/28 09:18:13;;;;;;;;;;;2.30;99.90;;;;;;5078403;28;19932;-84
2023/01/28 09:20:38;;;;;;;;;;;2.40;99.90;;;;;;5089979;28;19929;-81
2023/01/28 09:23:04;;;;;;;;;;;2.60;99.90;;;;;;5099250;28;19924;-82
2023/01/28 09:25:30;;;;;;;;;;;2.70;99.90;;;;;;5095852;28;19924;-82
2023/01/28 09:27:56;;;;;;;;;;;2.70;99.90;;;;;;5080527;28;19950;-82
2023/01/28 09:30:22;;;;;;;;;;;2.70;99.90;;;;;;5078578;28;19928;-81
2023/01/28 09:32:51;;;;;;;;;;;2.80;99.90;;;;;;5082289;28;19927;-83
2023/01/28 09:35:18;;;;;;;;;;;3.00;99.90;;;;;;5096184;28;19992;-82
2023/01/28 09:37:44;;;;;;;;;;;3.30;99.90;;;;;;5082282;28;19927;-81
2023/01/28 09:40:25;;;;;;;;;;;3.50;99.90;;;;;;5096182;28;19931;-82
2023/01/28 09:42:51;;;;;;;;;;;3.70;99.90;;;;;;5085350;27;19924;-81
2023/01/28 09:45:22;;;;;;;;;;;3.80;99.90;;;;;;5114743;28;19923;-81
2023/01/28 09:47:52;;;;;;;;;;;3.80;99.90;;;;;;5114322;27;19961;-82
2023/01/28 09:50:42;;;;;;;;;;;3.70;99.90;;;;;;5109467;27;19935;-82
2023/01/28 09:53:10;;;;;;;;;;;3.70;99.90;;;;;;5122080;27;20022;-82
2023/01/28 09:55:43;;;;;;;;;;;3.70;99.90;;;;;;5123388;27;19924;-81
2023/01/28 09:58:14;;;;;;;;;;;3.70;99.90;;;;;;5102335;28;19932;-82
2023/01/28 10:00:40;;;;;;;;;;;3.70;99.90;;;;;;5121905;27;19923;-81
2023/01/28 10:03:30;;;;;;;;;;;3.60;99.90;;;;;;5150217;27;19923;-81
2023/01/28 10:05:56;;;;;;;;;;;3.70;99.90;;;;;;5107439;27;19978;-82
2023/01/28 10:08:28;;;;;;;;;;;3.80;99.90;;;;;;5106118;27;19969;-82
2023/01/28 10:11:11;;;;;;;;;;;3.70;99.90;;;;;;5105344;27;19924;-81
2023/01/28 10:13:47;;;;;;;;;;;3.70;99.90;;;;;;5104667;27;19980;-81
2023/01/28 10:16:36;;;;;;;;;;;3.80;99.90;;;;;;5118685;28;19924;-81
2023/01/28 10:19:03;;;;;;;;;;;4.30;99.90;;;;;;5098035;27;20007;-81
2023/01/28 10:21:32;;;;;;;;;;;4.50;99.90;;;;;;5122668;27;19976;-81
2023/01/28 10:24:24;;;;;;;;;;;4.40;99.90;;;;;;5122801;27;19935;-81
2023/01/28 10:26:50;;;;;;;;;;;4.20;99.90;;;;;;5108137;27;19946;-81
2023/01/28 10:29:17;;;;;;;;;;;4.00;99.90;;;;;;5102755;28;19930;-81
2023/01/28 10:31:53;;;;;;;;;;;3.90;99.90;;;;;;5120696;27;19923;-81
2023/01/28 10:34:19;;;;;;;;;;;3.90;99.90;;;;;;5105680;27;19923;-81
2023/01/28 10:36:45;;;;;;;;;;;3.80;99.90;;;;;;5122092;27;19945;-81
2023/01/28 10:39:15;;;;;;;;;;;3.70;99.90;;;;;;5099086;27;19958;-82
2023/01/28 10:41:41;;;;;;;;;;;3.70;99.90;;;;;;5143988;27;19927;-81
2023/01/28 10:44:14;;;;;;;;;;;3.60;99.90;;;;;;5103768;28;20068;-81
2023/01/28 10:46:41;;;;;;;;;;;3.60;99.90;;;;;;5104368;28;19962;-81
2023/01/28 10:49:15;;;;;;;;;;;3.60;99.90;;;;;;5121499;28;19924;-81
2023/01/28 10:51:41;;;;;;;;;;;3.60;99.90;;;;;;5103270;28;20014;-82
2023/01/28 10:54:36;;;;;;;;;;;3.60;99.90;;;;;;5105558;27;19931;-81
2023/01/28 10:57:04;;;;;;;;;;;3.60;99.90;;;;;;5087312;28;19935;-81
2023/01/28 10:59:31;;;;;;;;;;;3.60;99.90;;;;;;5121991;28;19950;-82
2023/01/28 11:01:59;;;;;;;;;;;3.70;99.90;;;;;;5119684;28;20002;-82
2023/01/28 11:04:30;;;;;;;;;;;3.70;99.90;;;;;;5117034;28;19930;-82
2023/01/28 11:07:05;;;;;;;;;;;3.70;99.90;;;;;;5122797;28;19934;-81
2023/01/28 11:09:35;;;;;;;;;;;3.80;99.90;;;;;;5120620;28;19934;-82
2023/01/28 11:12:18;;;;;;;;;;;3.80;99.90;;;;;;5105095;28;19931;-81
2023/01/28 11:14:51;;;;;;;;;;;3.80;99.90;;;;;;5103877;28;20266;-81
2023/01/28 11:17:17;;;;;;;;;;;3.90;99.90;;;;;;5121755;28;19924;-81
2023/01/28 11:19:43;;;;;;;;;;;3.90;99.90;;;;;;5105142;28;19927;-81
2023/01/28 11:22:38;;;;;;;;;;;4.00;99.90;;;;;;5117723;28;19974;-81
2023/01/28 11:25:13;;;;;;;;;;;4.10;99.90;;;;;;5077199;28;19931;-82
2023/01/28 11:27:38;;;;;;;;;;;4.10;99.90;;;;;;5113505;28;19924;-82
2023/01/28 11:30:06;;;;;;;;;;;4.10;99.90;;;;;;5122100;28;19968;-82
2023/01/28 11:32:32;;;;;;;;;;;4.10;99.90;;;;;;5121300;28;19966;-81
2023/01/28 11:34:59;;;;;;;;;;;4.10;99.90;;;;;;5095385;28;19932;-81
2023/01/28 11:37:26;;;;;;;;;;;4.10;99.90;;;;;;5111599;28;19983;-81
2023/01/28 11:40:01;;;;;;;;;;;4.20;99.90;;;;;;5101916;28;19924;-81
2023/01/28 11:42:27;;;;;;;;;;;4.30;99.90;;;;;;5121175;28;19934;-81
2023/01/28 11:44:53;;;;;;;;;;;4.30;99.90;;;;;;5119811;28;19928;-81
2023/01/28 11:47:18;;;;;;;;;;;4.40;99.90;;;;;;5120054;28;20440;-81
2023/01/28 11:49:50;;;;;;;;;;;4.40;99.90;;;;;;5121853;28;19957;-82
2023/01/28 11:52:30;;;;;;;;;;;4.50;99.90;;;;;;5100446;28;19924;-81
2023/01/28 11:54:59;;;;;;;;;;;4.60;99.90;;;;;;5119944;28;19923;-81
2023/01/28 11:57:29;;;;;;;;;;;4.70;99.90;;;;;;5103503;28;20010;-81
2023/01/28 12:00:10;;;;;;;;;;;4.70;99.90;;;;;;5103536;28;19923;-81
2023/01/28 12:02:36;;;;;;;;;;;4.70;99.90;;;;;;5138827;27;20010;-81
2023/01/28 12:05:04;;;;;;;;;;;4.70;99.90;;;;;;5123668;28;19923;-81
2023/01/28 12:07:37;;;;;;;;;;;4.80;99.90;;;;;;5115553;27;19935;-80
2023/01/28 12:10:08;;;;;;;;;;;4.90;99.90;;;;;;5116953;27;19931;-81
2023/01/28 12:12:37;;;;;;;;;;;5.00;99.90;;;;;;5122770;27;19927;-80
2023/01/28 12:15:09;;;;;;;;;;;5.20;99.90;;;;;;5106185;27;19927;-80
2023/01/28 12:17:37;;;;;;;;;;;5.30;99.90;;;;;;5107078;27;19973;-80
2023/01/28 12:20:11;;;;;;;;;;;5.50;99.90;;;;;;5108459;27;19949;-80
2023/01/28 12:22:57;;;;;;;;;;;5.60;99.90;;;;;;5123358;27;19934;-80
2023/01/28 12:25:31;;;;;;;;;;;5.80;99.90;;;;;;5108217;27;19923;-80
2023/01/28 12:28:15;;;;;;;;;;;5.90;99.90;;;;;;5124148;27;19923;-80
2023/01/28 12:30:44;;;;;;;;;;;6.00;99.90;;;;;;5124032;27;19923;-80
2023/01/28 12:33:18;;;;;;;;;;;6.20;99.90;;;;;;5121913;28;19924;-80
2023/01/28 12:36:06;;;;;;;;;;;6.30;99.90;;;;;;5114141;27;20289;-82
2023/01/28 12:42:09;;;;;;;;;;;6.40;99.90;;;;;;5144780;27;19960;-82
2023/01/28 12:44:39;;;;;;;;;;;6.30;99.90;;;;;;5123154;27;19923;-80
2023/01/28 12:47:06;;;;;;;;;;;6.20;99.90;;;;;;5110137;27;19923;-81
2023/01/28 12:49:32;;;;;;;;;;;6.10;99.90;;;;;;5106431;27;19934;-81
2023/01/28 12:52:18;;;;;;;;;;;6.00;99.90;;;;;;5124372;27;19928;-80
2023/01/28 12:55:10;;;;;;;;;;;6.00;99.90;;;;;;5113826;27;19930;-80
2023/01/28 12:57:35;;;;;;;;;;;5.90;99.90;;;;;;5102759;28;19930;-80
2023/01/28 13:00:01;;;;;;;;;;;5.80;99.90;;;;;;5118954;27;19966;-81
2023/01/28 13:02:36;;;;;;;;;;;5.70;99.90;;;;;;5125861;27;19923;-80
2023/01/28 13:05:11;;;;;;;;;;;5.60;99.90;;;;;;5134574;27;19933;-81
2023/01/28 13:07:46;;;;;;;;;;;5.40;99.90;;;;;;5124529;27;19927;-80
2023/01/28 13:10:18;;;;;;;;;;;5.30;99.90;;;;;;5122803;27;19954;-80
2023/01/28 13:12:44;;;;;;;;;;;5.20;99.90;;;;;;5124283;27;19923;-80
2023/01/28 13:15:14;;;;;;;;;;;5.20;99.90;;;;;;5123032;27;20247;-80
2023/01/28 13:17:52;;;;;;;;;;;5.20;99.90;;;;;;5123029;27;19971;-80
2023/01/28 13:20:28;;;;;;;;;;;5.30;99.90;;;;;;5107251;27;19923;-80
2023/01/28 13:23:01;;;;;;;;;;;5.30;99.90;;;;;;5122834;27;20010;-80
2023/01/28 13:25:27;;;;;;;;;;;5.40;99.90;;;;;;5134270;27;19927;-81
2023/01/28 13:28:03;;;;;;;;;;;5.50;99.90;;;;;;5126569;27;19923;-80
2023/01/28 13:30:30;;;;;;;;;;;5.50;99.90;;;;;;5116471;27;20014;-80
2023/01/28 13:32:57;;;;;;;;;;;5.60;99.90;;;;;;5132149;27;19928;-80
2023/01/28 13:35:28;;;;;;;;;;;5.60;99.90;;;;;;5105888;27;19924;-80
2023/01/28 13:37:55;;;;;;;;;;;5.70;99.90;;;;;;5142415;27;19934;-80
2023/01/28 13:40:26;;;;;;;;;;;5.70;99.90;;;;;;5102013;28;19924;-80
2023/01/28 13:42:59;;;;;;;;;;;5.70;99.90;;;;;;5116877;27;19927;-80
2023/01/28 13:45:24;;;;;;;;;;;5.70;99.90;;;;;;5127047;27;19923;-80
2023/01/28 13:47:52;;;;;;;;;;;5.60;99.90;;;;;;5141779;27;19978;-80
2023/01/28 13:50:19;;;;;;;;;;;5.60;99.90;;;;;;5142116;27;19932;-80
2023/01/28 13:52:48;;;;;;;;;;;5.50;99.90;;;;;;5122008;27;19951;-80
2023/01/28 13:55:19;;;;;;;;;;;5.50;99.90;;;;;;5123462;27;19923;-80
2023/01/28 13:58:03;;;;;;;;;;;5.50;99.90;;;;;;5121973;27;19986;-80
2023/01/28 14:00:32;;;;;;;;;;;5.40;99.90;;;;;;5141536;27;19931;-80
2023/01/28 14:03:07;;;;;;;;;;;5.30;99.90;;;;;;5115980;28;20089;-80
2023/01/28 14:05:51;;;;;;;;;;;5.20;99.90;;;;;;5115701;27;19935;-80
2023/01/28 14:08:20;;;;;;;;;;;5.00;99.90;;;;;;5123393;27;19923;-80
2023/01/28 14:10:45;;;;;;;;;;;5.00;99.90;;;;;;5118103;27;19930;-80
2023/01/28 14:13:20;;;;;;;;;;;5.00;99.90;;;;;;5109892;27;19927;-80
2023/01/28 14:16:09;;;;;;;;;;;5.00;99.90;;;;;;5122533;27;19928;-80
2023/01/28 14:18:37;;;;;;;;;;;5.00;99.90;;;;;;5121002;27;19939;-80
2023/01/28 14:21:08;;;;;;;;;;;5.10;99.90;;;;;;5104411;27;20006;-80
2023/01/28 14:23:35;;;;;;;;;;;5.10;99.90;;;;;;5121651;27;19962;-80
2023/01/28 14:26:24;;;;;;;;;;;5.10;99.90;;;;;;5122590;27;19934;-80
2023/01/28 14:28:58;;;;;;;;;;;5.00;99.90;;;;;;5077726;27;19923;-80
2023/01/28 14:31:37;;;;;;;;;;;4.90;99.90;;;;;;5139311;27;20394;-80
2023/01/28 14:34:06;;;;;;;;;;;4.80;99.90;;;;;;5102668;28;19931;-80
2023/01/28 14:36:35;;;;;;;;;;;4.70;99.90;;;;;;5118530;27;19927;-80
2023/01/28 14:39:00;;;;;;;;;;;4.70;99.90;;;;;;5105488;27;19981;-80
2023/01/28 14:41:26;;;;;;;;;;;4.70;99.90;;;;;;5105484;27;19924;-80
2023/01/28 14:43:53;;;;;;;;;;;4.70;99.90;;;;;;5121487;28;20369;-80
2023/01/28 14:46:22;;;;;;;;;;;4.70;99.90;;;;;;5105697;28;19924;-80
2023/01/28 14:49:03;;;;;;;;;;;4.80;99.90;;;;;;5124276;27;19986;-80
2023/01/28 14:51:28;;;;;;;;;;;4.80;99.90;;;;;;5128678;28;19976;-80
2023/01/28 14:53:57;;;;;;;;;;;4.80;99.90;;;;;;5128841;28;19920;-80
2023/01/28 14:56:29;;;;;;;;;;;4.80;99.90;;;;;;5130186;28;19934;-80
2023/01/28 14:58:59;;;;;;;;;;;4.80;99.90;;;;;;5112635;28;19924;-80
2023/01/28 15:01:28;;;;;;;;;;;4.70;99.90;;;;;;5121940;28;19958;-80
2023/01/28 15:03:54;;;;;;;;;;;4.70;99.90;;;;;;5140536;27;19923;-81
2023/01/28 15:06:24;;;;;;;;;;;4.70;99.90;;;;;;5123257;28;19984;-80
2023/01/28 15:08:50;;;;;;;;;;;4.70;99.90;;;;;;5125449;28;19924;-80
2023/01/28 15:11:19;;;;;;;;;;;4.70;99.90;;;;;;5124006;28;20048;-80
2023/01/28 15:13:46;;;;;;;;;;;4.70;99.90;;;;;;5102319;28;19924;-80
2023/01/28 15:16:16;;;;;;;;;;;4.60;99.90;;;;;;5117396;28;19924;-80